Terminal Aerodrome Forecast
Issued by NWS

Home | Current Version | Previous Version | Text Only | Print | Product List | Glossary On
Versions: 1 2 3 4 5 6 7 8 9 10 11 12 13 14 15 16 17 18 19 20 21 22 23 24 25 26 27 28 29 30 31 32 33 34 35 36
000
FTAK31 PANC 241720
TAFAHO
TAF
PAHO 241720Z 2418/2518 25008KT P6SM OVC025
      TEMPO 2418/2421 25015G25KT BKN035
     FM242100 25016G26KT P6SM BKN045
     FM250400 27012KT P6SM BKN050
     FM250700 30008KT P6SM SCT050=

USA.gov is the U.S. government's official web portal to all federal, state and local government web resources and services.